Time;durP1;ratioP1;P1;durP2;ratioP2;P2;SDS_P1;SDS_P2;PMS_P1;PMS_P2;Temp;Humidity;BMP_temperature;BMP_pressure;BME280_temperature;BME280_humidity;BME280_pressure;Samples;Min_cycle;Max_cycle;Signal;HPM_P1;HPM_P2
2021/12/02 00:01:08;;;;;;;172.35;158.75;;;6.80;99.90;;;;;;5100414;28;20263;-85
2021/12/02 00:03:35;;;;;;;213.50;198.35;;;6.70;99.90;;;;;;5119642;28;20272;-85
2021/12/02 00:06:02;;;;;;;182.48;168.15;;;6.70;99.90;;;;;;5118650;28;20235;-85
2021/12/02 00:08:28;;;;;;;210.63;195.88;;;6.60;99.90;;;;;;5119283;28;20168;-85
2021/12/02 00:10:57;;;;;;;201.67;186.67;;;6.70;99.90;;;;;;5119829;28;20277;-86
2021/12/02 00:13:25;;;;;;;231.57;215.57;;;6.70;99.90;;;;;;5100991;28;20946;-86
2021/12/02 00:16:00;;;;;;;196.73;182.45;;;6.70;99.90;;;;;;5120049;28;20166;-86
2021/12/02 00:21:05;;;;;;;226.13;210.30;;;6.60;99.90;;;;;;5119249;28;20178;-86
2021/12/02 00:23:40;;;;;;;209.85;194.68;;;6.60;99.90;;;;;;5119447;28;20169;-86
2021/12/02 00:26:12;;;;;;;174.52;160.18;;;6.70;99.90;;;;;;5119536;28;20186;-85
2021/12/02 00:28:40;;;;;;;201.38;186.25;;;6.70;99.90;;;;;;5100976;28;20178;-85
2021/12/02 00:31:09;;;;;;;210.57;194.98;;;6.70;99.90;;;;;;5120222;28;20178;-86
2021/12/02 00:33:35;;;;;;;181.65;167.43;;;6.70;99.90;;;;;;5124145;28;20241;-87
2021/12/02 00:36:02;;;;;;;213.97;198.90;;;6.70;99.90;;;;;;5104780;28;20190;-86
2021/12/02 00:38:29;;;;;;;212.98;197.45;;;6.60;99.90;;;;;;5104832;28;20401;-86
2021/12/02 00:40:55;;;;;;;213.95;198.73;;;6.60;99.90;;;;;;5104058;28;20212;-85
2021/12/02 00:43:20;;;;;;;204.20;189.23;;;6.60;99.90;;;;;;5123051;28;20630;-86
2021/12/02 00:45:47;;;;;;;218.73;203.83;;;6.60;99.90;;;;;;5122611;28;20166;-86
2021/12/02 00:48:15;;;;;;;221.50;205.82;;;6.60;99.90;;;;;;5104365;28;20415;-86
2021/12/02 00:50:44;;;;;;;222.00;206.90;;;6.60;99.90;;;;;;5122618;28;20187;-86
2021/12/02 00:53:11;;;;;;;234.70;218.88;;;6.60;99.90;;;;;;5123154;28;20599;-85
2021/12/02 00:55:39;;;;;;;226.65;210.93;;;6.60;99.90;;;;;;5122070;28;20617;-85
2021/12/02 00:58:11;;;;;;;205.40;190.32;;;6.60;99.90;;;;;;5103665;28;20253;-85
2021/12/02 01:00:40;;;;;;;223.23;207.32;;;6.60;99.90;;;;;;5122004;28;20231;-85
2021/12/02 01:03:09;;;;;;;197.30;182.68;;;6.60;99.90;;;;;;5121710;28;20622;-85
2021/12/02 01:05:35;;;;;;;195.15;180.77;;;6.50;99.90;;;;;;5121862;28;20159;-85
2021/12/02 01:08:01;;;;;;;238.27;221.75;;;6.60;99.90;;;;;;5122587;28;20169;-85
2021/12/02 01:10:27;;;;;;;237.77;221.95;;;6.50;99.90;;;;;;5128876;28;20183;-84
2021/12/02 01:12:53;;;;;;;224.07;208.97;;;6.50;99.90;;;;;;5110898;28;20170;-84
2021/12/02 01:15:18;;;;;;;216.57;201.80;;;6.50;99.90;;;;;;5121952;28;20503;-84
2021/12/02 01:17:44;;;;;;;258.63;241.63;;;6.50;99.90;;;;;;5119979;28;20647;-84
2021/12/02 01:20:10;;;;;;;230.03;214.73;;;6.50;99.90;;;;;;5100521;28;20183;-84
2021/12/02 01:22:38;;;;;;;257.85;240.93;;;6.50;99.90;;;;;;5102434;28;20177;-84
2021/12/02 01:25:06;;;;;;;237.23;221.20;;;6.60;99.90;;;;;;5105426;28;20170;-85
2021/12/02 01:27:35;;;;;;;208.93;193.88;;;6.60;99.90;;;;;;5124050;28;20165;-85
2021/12/02 01:30:01;;;;;;;192.23;178.15;;;6.60;99.90;;;;;;5105938;28;20204;-84
2021/12/02 01:32:28;;;;;;;209.55;194.80;;;6.50;99.90;;;;;;5106195;28;20665;-86
2021/12/02 01:34:56;;;;;;;213.60;198.50;;;6.60;99.90;;;;;;5105504;28;20185;-85
2021/12/02 01:37:21;;;;;;;230.25;214.73;;;6.50;99.90;;;;;;5105716;28;20517;-86
2021/12/02 01:39:49;;;;;;;204.00;189.10;;;6.50;99.90;;;;;;5105106;28;20182;-85
2021/12/02 01:42:23;;;;;;;234.80;219.02;;;6.50;99.90;;;;;;5105504;28;20413;-85
2021/12/02 01:44:51;;;;;;;206.65;192.27;;;6.50;99.90;;;;;;5106472;28;20158;-86
2021/12/02 01:47:23;;;;;;;215.68;200.85;;;6.50;99.90;;;;;;5109841;28;20204;-85
2021/12/02 01:49:53;;;;;;;205.82;191.18;;;6.50;99.90;;;;;;5105290;28;20221;-85
2021/12/02 01:52:24;;;;;;;234.85;219.10;;;6.40;99.90;;;;;;5122616;28;20668;-85
2021/12/02 01:54:55;;;;;;;221.93;206.30;;;6.40;99.90;;;;;;5104515;28;20165;-86
2021/12/02 01:57:29;;;;;;;210.98;196.63;;;6.40;99.90;;;;;;5122326;28;20151;-85
2021/12/02 02:00:05;;;;;;;256.45;239.45;;;6.40;99.90;;;;;;5189412;22;20208;-84
2021/12/02 02:02:34;;;;;;;211.25;196.38;;;6.40;99.90;;;;;;5112736;27;20289;-83
2021/12/02 02:05:01;;;;;;;221.18;205.48;;;6.50;99.90;;;;;;5138357;27;20537;-84
2021/12/02 02:07:31;;;;;;;231.25;215.55;;;6.40;99.90;;;;;;5138474;27;20174;-84
2021/12/02 02:09:57;;;;;;;234.93;219.02;;;6.40;99.90;;;;;;5150231;27;20623;-84
2021/12/02 02:12:24;;;;;;;181.67;168.00;;;6.50;99.90;;;;;;5159000;27;20288;-84
2021/12/02 02:14:51;;;;;;;198.05;183.55;;;6.50;99.90;;;;;;5140817;27;20161;-83
2021/12/02 02:17:26;;;;;;;246.93;230.35;;;6.50;99.90;;;;;;5159267;27;20206;-84
2021/12/02 02:19:52;;;;;;;184.60;170.65;;;6.40;99.90;;;;;;5159111;27;20222;-84
2021/12/02 02:22:23;;;;;;;217.60;202.32;;;6.50;99.90;;;;;;5141323;27;20162;-84
2021/12/02 02:24:50;;;;;;;220.00;204.75;;;6.40;99.90;;;;;;5159097;27;20211;-84
2021/12/02 02:27:16;;;;;;;197.23;183.07;;;6.40;99.90;;;;;;5158833;27;20184;-84
2021/12/02 02:29:42;;;;;;;245.25;228.40;;;6.40;99.90;;;;;;5139686;27;20679;-83
2021/12/02 02:32:10;;;;;;;213.80;198.27;;;6.40;99.90;;;;;;5159123;27;20245;-83
2021/12/02 02:34:36;;;;;;;225.60;210.35;;;6.40;99.90;;;;;;5159012;27;20157;-83
2021/12/02 02:37:04;;;;;;;268.73;251.97;;;6.40;99.90;;;;;;5140529;27;20165;-84
2021/12/02 02:39:33;;;;;;;222.60;207.77;;;6.40;99.90;;;;;;5140856;27;20430;-84
2021/12/02 02:42:01;;;;;;;168.13;154.57;;;6.40;99.90;;;;;;5159368;27;20157;-84
2021/12/02 02:44:29;;;;;;;195.32;179.70;;;6.30;99.90;;;;;;5159150;27;20153;-84
2021/12/02 02:46:55;;;;;;;160.15;147.00;;;6.40;99.90;;;;;;5159225;27;20161;-84
2021/12/02 02:49:21;;;;;;;168.68;155.38;;;6.30;99.90;;;;;;5159518;27;20307;-84
2021/12/02 02:51:48;;;;;;;203.65;188.75;;;6.30;99.90;;;;;;5159624;27;20266;-84
2021/12/02 02:54:21;;;;;;;193.82;179.70;;;6.30;99.90;;;;;;5159816;27;20282;-84
2021/12/02 02:57:04;;;;;;;226.18;210.30;;;6.40;99.90;;;;;;5158303;27;20153;-84
2021/12/02 03:05:39;;;;;;;192.15;178.32;;;6.30;99.90;;;;;;5102622;27;20197;-83
2021/12/02 03:08:18;;;;;;;207.00;191.77;;;6.30;99.90;;;;;;5160256;27;20209;-83
2021/12/02 03:10:57;;;;;;;170.18;156.88;;;6.30;99.90;;;;;;5159709;27;20192;-83
2021/12/02 03:13:48;;;;;;;185.00;171.15;;;6.20;99.90;;;;;;5141437;27;20221;-84
2021/12/02 03:19:01;;;;;;;207.50;192.70;;;6.10;99.90;;;;;;5158993;27;20183;-84
2021/12/02 03:21:29;;;;;;;189.60;175.65;;;6.10;99.90;;;;;;5141326;27;20181;-84
2021/12/02 03:24:00;;;;;;;214.85;199.73;;;6.10;99.90;;;;;;5159902;27;20176;-84
2021/12/02 03:26:28;;;;;;;219.00;203.77;;;6.20;99.90;;;;;;5159648;27;20149;-84
2021/12/02 03:28:56;;;;;;;171.30;157.70;;;6.10;99.90;;;;;;5159500;27;20166;-84
2021/12/02 03:31:25;;;;;;;183.48;169.82;;;6.10;99.90;;;;;;5159075;27;20208;-84
2021/12/02 03:33:53;;;;;;;157.02;144.10;;;6.00;99.90;;;;;;5141118;27;20172;-84
2021/12/02 03:36:20;;;;;;;187.35;173.30;;;6.00;99.90;;;;;;5141197;27;20172;-84
2021/12/02 03:38:46;;;;;;;145.55;133.07;;;6.10;99.90;;;;;;5140607;27;20551;-84
2021/12/02 03:41:13;;;;;;;144.07;131.13;;;6.00;99.90;;;;;;5141027;27;20169;-84
2021/12/02 03:43:45;;;;;;;146.45;134.15;;;6.00;99.90;;;;;;5159427;27;20165;-84
2021/12/02 03:46:13;;;;;;;145.15;132.25;;;6.00;99.90;;;;;;5159294;27;20241;-84
2021/12/02 03:48:41;;;;;;;135.60;123.65;;;6.00;99.90;;;;;;5159604;27;20604;-84
2021/12/02 03:51:09;;;;;;;150.55;138.15;;;6.00;99.90;;;;;;5140553;27;20200;-84
2021/12/02 03:53:35;;;;;;;160.07;147.05;;;6.00;99.90;;;;;;5159386;27;20161;-84
2021/12/02 03:56:02;;;;;;;141.13;128.77;;;6.00;99.90;;;;;;5158797;27;20589;-84
2021/12/02 03:58:28;;;;;;;153.35;140.75;;;6.00;99.90;;;;;;5158575;27;20172;-84
2021/12/02 04:00:54;;;;;;;150.73;138.05;;;6.10;99.90;;;;;;5158534;27;20192;-84
2021/12/02 04:03:20;;;;;;;153.00;140.07;;;6.00;99.90;;;;;;5159239;27;20675;-84
2021/12/02 04:05:46;;;;;;;173.27;159.57;;;6.00;99.90;;;;;;5158394;27;20642;-84
2021/12/02 04:08:12;;;;;;;179.53;165.80;;;6.00;99.90;;;;;;5161226;27;20157;-84
2021/12/02 04:10:40;;;;;;;183.88;170.02;;;6.00;99.90;;;;;;5163364;27;20662;-84
2021/12/02 04:15:40;;;;;;;186.98;173.48;;;6.00;99.90;;;;;;5163630;27;20163;-84
2021/12/02 04:18:06;;;;;;;181.25;167.50;;;6.10;99.90;;;;;;5144672;27;20161;-84
2021/12/02 04:20:32;;;;;;;190.90;176.35;;;6.00;99.90;;;;;;5163188;27;20176;-84
2021/12/02 04:22:58;;;;;;;174.70;161.30;;;6.00;99.90;;;;;;5163149;27;20240;-84
2021/12/02 04:25:25;;;;;;;185.67;171.67;;;5.90;99.90;;;;;;5164344;27;20413;-84
2021/12/02 04:27:53;;;;;;;222.57;207.07;;;6.00;99.90;;;;;;5163151;27;20727;-84
2021/12/02 04:30:25;;;;;;;213.73;199.02;;;5.90;99.90;;;;;;5162626;27;20575;-83
2021/12/02 04:32:51;;;;;;;166.50;153.63;;;5.90;99.90;;;;;;5162799;27;20201;-84
2021/12/02 04:35:17;;;;;;;194.45;180.82;;;5.90;99.90;;;;;;5162647;27;20164;-83
2021/12/02 04:37:44;;;;;;;206.35;191.77;;;5.90;99.90;;;;;;5163373;27;20625;-84
2021/12/02 04:40:14;;;;;;;193.75;180.00;;;5.90;99.90;;;;;;5162789;27;20200;-83
2021/12/02 04:42:40;;;;;;;187.07;172.73;;;5.90;99.90;;;;;;5144206;27;20161;-84
2021/12/02 04:45:06;;;;;;;202.67;188.63;;;5.90;99.90;;;;;;5162743;27;20160;-84
2021/12/02 04:47:32;;;;;;;193.32;179.23;;;5.90;99.90;;;;;;5162283;27;20161;-84
2021/12/02 04:50:00;;;;;;;211.37;196.37;;;5.90;99.90;;;;;;5143621;27;20214;-84
2021/12/02 04:52:26;;;;;;;197.73;183.60;;;5.90;99.90;;;;;;5162089;27;20189;-84
2021/12/02 04:54:52;;;;;;;222.60;207.27;;;5.90;99.90;;;;;;5143027;27;20210;-84
2021/12/02 04:57:18;;;;;;;200.60;185.93;;;5.90;99.90;;;;;;5161446;27;20153;-84
2021/12/02 04:59:44;;;;;;;189.23;175.50;;;5.90;99.90;;;;;;5143227;27;20657;-84
2021/12/02 05:02:09;;;;;;;232.17;216.47;;;5.90;99.90;;;;;;5142589;27;20260;-84
2021/12/02 05:04:38;;;;;;;200.47;186.13;;;5.90;99.90;;;;;;5161025;27;20213;-84
2021/12/02 05:07:04;;;;;;;182.05;168.25;;;5.90;99.90;;;;;;5161008;27;20169;-84
2021/12/02 05:09:29;;;;;;;180.10;166.20;;;5.80;99.90;;;;;;5161718;27;20189;-84
2021/12/02 05:11:55;;;;;;;204.80;190.30;;;5.90;99.90;;;;;;5143741;27;20193;-84
2021/12/02 05:14:21;;;;;;;205.80;191.13;;;5.90;99.90;;;;;;5161511;27;20696;-84
2021/12/02 05:16:46;;;;;;;199.37;185.33;;;5.80;99.90;;;;;;5160781;27;20157;-84
2021/12/02 05:19:12;;;;;;;182.07;168.37;;;5.80;99.90;;;;;;5160923;27;20181;-84
2021/12/02 05:21:38;;;;;;;188.23;174.03;;;5.80;99.90;;;;;;5161260;27;20674;-84
2021/12/02 05:24:07;;;;;;;217.23;202.13;;;5.70;99.90;;;;;;5161193;27;20237;-84
2021/12/02 05:26:33;;;;;;;239.50;223.73;;;5.70;99.90;;;;;;5161005;27;20462;-84
2021/12/02 05:28:59;;;;;;;162.68;149.60;;;5.70;99.90;;;;;;5161008;27;20718;-84
2021/12/02 05:31:25;;;;;;;166.75;153.27;;;5.70;99.90;;;;;;5160693;27;20185;-84
2021/12/02 05:33:51;;;;;;;173.15;159.93;;;5.70;99.90;;;;;;5160563;27;20233;-84
2021/12/02 05:36:17;;;;;;;230.73;215.23;;;5.60;99.90;;;;;;5142663;27;20667;-84
2021/12/02 05:38:45;;;;;;;186.07;172.47;;;5.70;99.90;;;;;;5142273;27;20455;-83
2021/12/02 05:41:15;;;;;;;205.40;190.73;;;5.60;99.90;;;;;;5142579;27;20410;-84
2021/12/02 05:43:41;;;;;;;193.57;179.02;;;5.60;99.90;;;;;;5142231;27;20165;-84
2021/12/02 05:46:07;;;;;;;162.88;149.80;;;5.70;99.90;;;;;;5142433;27;20192;-84
2021/12/02 05:48:33;;;;;;;212.93;197.87;;;5.70;99.90;;;;;;5141996;27;20218;-84
2021/12/02 05:50:59;;;;;;;187.13;172.80;;;5.70;99.90;;;;;;5160489;27;20192;-84
2021/12/02 05:53:25;;;;;;;160.87;147.73;;;5.70;99.90;;;;;;5160716;27;20485;-84
2021/12/02 05:55:51;;;;;;;175.48;161.98;;;5.70;99.90;;;;;;5160376;27;20192;-84
2021/12/02 05:58:16;;;;;;;170.23;156.83;;;5.70;99.90;;;;;;5142179;27;20162;-84
2021/12/02 06:00:42;;;;;;;231.57;216.47;;;5.60;99.90;;;;;;5141716;27;20703;-84
2021/12/02 06:03:08;;;;;;;243.23;226.93;;;5.60;99.90;;;;;;5160407;27;20516;-84
2021/12/02 06:05:37;;;;;;;175.48;161.88;;;5.60;99.90;;;;;;5159728;27;20424;-84
2021/12/02 06:08:04;;;;;;;177.85;164.27;;;5.60;99.90;;;;;;5160826;27;20173;-84
2021/12/02 06:10:33;;;;;;;223.48;208.10;;;5.50;99.90;;;;;;5141465;27;20192;-84
2021/12/02 06:12:58;;;;;;;211.80;196.93;;;5.50;99.90;;;;;;5160771;27;20217;-84
2021/12/02 06:15:24;;;;;;;186.60;173.00;;;5.50;99.90;;;;;;5160152;27;20177;-84
2021/12/02 06:17:50;;;;;;;205.80;190.93;;;5.50;99.90;;;;;;5159989;27;20705;-84
2021/12/02 06:20:17;;;;;;;224.47;208.33;;;5.50;99.90;;;;;;5160193;27;20656;-84
2021/12/02 06:22:44;;;;;;;212.05;197.00;;;5.50;99.90;;;;;;5141605;27;20168;-84
2021/12/02 06:27:44;;;;;;;169.48;156.57;;;5.50;99.90;;;;;;5160395;27;20213;-84
2021/12/02 06:30:11;;;;;;;190.02;176.32;;;5.50;99.90;;;;;;5141404;27;20664;-84
2021/12/02 06:32:37;;;;;;;177.32;163.60;;;5.40;99.90;;;;;;5141651;27;20192;-84
2021/12/02 06:35:03;;;;;;;182.20;168.70;;;5.40;99.90;;;;;;5160895;27;20172;-84
2021/12/02 06:37:29;;;;;;;186.95;172.95;;;5.40;99.90;;;;;;5141109;27;20270;-84
2021/12/02 06:39:55;;;;;;;199.93;185.23;;;5.40;99.90;;;;;;5159847;27;20645;-84
2021/12/02 06:42:20;;;;;;;207.77;193.10;;;5.40;99.90;;;;;;5159716;27;20161;-84
2021/12/02 06:44:46;;;;;;;202.03;187.83;;;5.40;99.90;;;;;;5142124;27;20173;-83
2021/12/02 06:47:12;;;;;;;172.57;159.43;;;5.40;99.90;;;;;;5141510;27;20627;-84
2021/12/02 06:49:40;;;;;;;241.53;225.17;;;5.40;99.90;;;;;;5159443;27;20272;-83
2021/12/02 06:52:11;;;;;;;205.77;190.98;;;5.30;99.90;;;;;;5159207;27;20249;-83
2021/12/02 06:54:40;;;;;;;172.18;158.90;;;5.30;99.90;;;;;;5140146;27;20161;-84
2021/12/02 06:57:06;;;;;;;209.60;194.05;;;5.40;99.90;;;;;;5140400;27;20165;-84
2021/12/02 06:59:33;;;;;;;203.90;189.15;;;5.40;99.90;;;;;;5140470;27;20228;-85
2021/12/02 07:01:59;;;;;;;176.30;162.85;;;5.40;99.90;;;;;;5140670;27;20208;-84
2021/12/02 07:04:25;;;;;;;198.75;184.20;;;5.40;99.90;;;;;;5140536;27;20256;-83
2021/12/02 07:06:50;;;;;;;180.13;166.10;;;5.30;99.90;;;;;;5159166;27;20196;-83
2021/12/02 07:09:16;;;;;;;173.40;159.60;;;5.30;99.90;;;;;;5140489;27;20644;-84
2021/12/02 07:11:43;;;;;;;189.30;175.63;;;5.30;99.90;;;;;;5159111;27;20600;-84
2021/12/02 07:14:15;;;;;;;166.38;152.73;;;5.20;99.90;;;;;;5140437;27;20251;-84
2021/12/02 07:16:41;;;;;;;224.25;209.02;;;5.30;99.90;;;;;;5160244;27;20138;-84
2021/12/02 07:19:08;;;;;;;208.45;194.13;;;5.20;99.90;;;;;;5158958;27;20193;-84
2021/12/02 07:21:37;;;;;;;177.93;164.13;;;5.30;99.90;;;;;;5141426;27;20259;-83
2021/12/02 07:24:04;;;;;;;191.52;177.30;;;5.30;99.90;;;;;;5139325;27;20164;-83
2021/12/02 07:26:33;;;;;;;193.48;178.75;;;5.30;99.90;;;;;;5157846;27;20523;-82
2021/12/02 07:28:59;;;;;;;177.15;163.65;;;5.20;99.90;;;;;;5157562;27;20188;-84
2021/12/02 07:31:30;;;;;;;172.43;159.27;;;5.20;99.90;;;;;;5139614;27;20180;-84
2021/12/02 07:33:57;;;;;;;194.32;180.10;;;5.20;99.90;;;;;;5141059;27;20146;-83
2021/12/02 07:36:24;;;;;;;228.93;213.05;;;5.20;99.90;;;;;;5139776;27;20308;-84
2021/12/02 07:38:50;;;;;;;156.82;144.18;;;5.20;99.90;;;;;;5140982;27;20693;-84
2021/12/02 07:41:16;;;;;;;171.50;158.55;;;5.10;99.90;;;;;;5159306;27;20161;-84
2021/12/02 07:43:42;;;;;;;224.45;208.63;;;5.00;99.90;;;;;;5140250;27;20242;-84
2021/12/02 07:46:09;;;;;;;191.13;176.82;;;5.10;99.90;;;;;;5141381;27;20171;-84
2021/12/02 07:48:38;;;;;;;180.77;166.95;;;5.00;99.90;;;;;;5159119;27;20161;-84
2021/12/02 07:51:10;;;;;;;148.38;135.98;;;5.00;99.90;;;;;;5142216;27;20548;-85
2021/12/02 07:53:39;;;;;;;143.85;131.68;;;5.00;99.90;;;;;;5141151;27;20192;-85
2021/12/02 07:56:09;;;;;;;137.35;125.55;;;5.00;99.90;;;;;;5141285;27;20540;-85
2021/12/02 07:58:35;;;;;;;132.75;120.65;;;5.00;99.90;;;;;;5142223;27;20198;-84
2021/12/02 08:01:02;;;;;;;131.70;119.97;;;5.00;99.90;;;;;;5207622;22;20222;-86
2021/12/02 08:03:29;;;;;;;121.00;109.63;;;4.90;99.90;;;;;;5122451;28;20162;-87
2021/12/02 08:05:55;;;;;;;108.50;97.60;;;4.90;99.90;;;;;;5122291;28;20166;-87
2021/12/02 08:08:21;;;;;;;133.20;121.47;;;4.90;99.90;;;;;;5121816;28;20162;-87
2021/12/02 08:10:48;;;;;;;128.57;116.73;;;5.00;99.90;;;;;;5140226;28;20196;-85
2021/12/02 08:13:14;;;;;;;112.35;101.18;;;5.00;99.90;;;;;;5124447;28;20464;-85
2021/12/02 08:15:41;;;;;;;104.50;93.68;;;5.00;99.90;;;;;;5143436;28;20195;-85
2021/12/02 08:18:07;;;;;;;99.50;88.60;;;5.00;99.90;;;;;;5143299;28;20177;-85
2021/12/02 08:20:34;;;;;;;124.65;113.10;;;5.00;99.90;;;;;;5142354;28;20200;-84
2021/12/02 08:23:00;;;;;;;144.70;131.85;;;5.00;99.90;;;;;;5142913;28;20169;-84
2021/12/02 08:25:27;;;;;;;106.90;95.77;;;4.90;99.90;;;;;;5142037;28;20165;-85
2021/12/02 08:27:55;;;;;;;149.52;136.50;;;4.90;99.90;;;;;;5141207;28;20716;-84
2021/12/02 08:30:24;;;;;;;162.80;149.98;;;4.90;99.90;;;;;;5142025;28;20182;-84
2021/12/02 08:32:50;;;;;;;147.82;135.07;;;4.90;99.90;;;;;;5142271;28;20262;-85
2021/12/02 08:35:16;;;;;;;141.67;129.37;;;4.90;99.90;;;;;;5124801;28;20193;-85
2021/12/02 08:37:46;;;;;;;147.73;135.25;;;4.90;99.90;;;;;;5143117;28;20396;-84
2021/12/02 08:40:16;;;;;;;149.93;137.43;;;4.90;99.90;;;;;;5142039;28;20189;-84
2021/12/02 08:42:43;;;;;;;146.10;132.98;;;5.00;99.90;;;;;;5142293;28;20182;-85
2021/12/02 08:45:09;;;;;;;186.27;172.13;;;5.00;99.90;;;;;;5123201;28;20170;-85
2021/12/02 08:47:43;;;;;;;184.77;170.70;;;5.00;99.90;;;;;;5142577;28;20186;-85
2021/12/02 08:50:19;;;;;;;180.57;166.50;;;5.00;99.90;;;;;;5124505;28;20189;-85
2021/12/02 08:52:47;;;;;;;148.32;135.88;;;4.90;99.90;;;;;;5124195;28;20192;-85
2021/12/02 08:55:14;;;;;;;152.85;140.45;;;4.90;99.90;;;;;;5146764;27;20184;-85
2021/12/02 08:57:40;;;;;;;157.95;145.27;;;5.00;99.90;;;;;;5127777;27;20652;-84
2021/12/02 09:00:09;;;;;;;163.30;150.48;;;5.00;99.90;;;;;;5129657;27;20189;-85
2021/12/02 09:02:35;;;;;;;167.63;154.57;;;5.10;99.90;;;;;;5148150;27;20173;-85
2021/12/02 09:05:01;;;;;;;185.43;171.93;;;5.10;99.90;;;;;;5166462;27;20172;-84
2021/12/02 09:07:27;;;;;;;167.60;154.45;;;5.10;99.90;;;;;;5148401;27;20691;-85
2021/12/02 09:09:53;;;;;;;205.93;190.98;;;5.10;99.90;;;;;;5166600;27;20177;-85
2021/12/02 09:12:18;;;;;;;163.03;149.70;;;5.00;99.90;;;;;;5147309;27;20664;-85
2021/12/02 09:14:47;;;;;;;165.50;152.10;;;5.00;99.90;;;;;;5165298;27;20580;-85
2021/12/02 09:17:13;;;;;;;163.43;149.98;;;4.90;99.90;;;;;;5165517;27;20391;-84
2021/12/02 09:19:38;;;;;;;162.30;149.33;;;4.90;99.90;;;;;;5164499;27;20188;-85
2021/12/02 09:22:04;;;;;;;139.57;127.57;;;4.90;99.90;;;;;;5165399;27;20178;-84
2021/12/02 09:24:30;;;;;;;169.57;156.60;;;5.00;99.90;;;;;;5147125;27;20169;-85
2021/12/02 09:26:56;;;;;;;176.33;162.60;;;5.00;99.90;;;;;;5146875;27;20411;-85
2021/12/02 09:29:23;;;;;;;160.50;147.40;;;4.90;99.90;;;;;;5146047;27;20197;-84
2021/12/02 09:31:53;;;;;;;172.35;158.75;;;5.00;99.90;;;;;;5163940;27;20525;-84
2021/12/02 09:34:19;;;;;;;167.15;154.10;;;5.00;99.90;;;;;;5165275;27;20161;-84
2021/12/02 09:36:46;;;;;;;148.07;135.77;;;5.10;99.90;;;;;;5165852;27;20172;-85
2021/12/02 09:39:13;;;;;;;199.93;185.68;;;5.10;99.90;;;;;;5163963;27;20270;-84
2021/12/02 09:41:40;;;;;;;195.35;180.88;;;5.10;99.90;;;;;;5144698;27;20172;-85
2021/12/02 09:44:07;;;;;;;193.35;179.00;;;5.20;99.90;;;;;;5163866;27;20166;-84
2021/12/02 09:46:33;;;;;;;169.25;156.10;;;5.20;99.90;;;;;;5145648;27;20681;-85
2021/12/02 09:49:03;;;;;;;165.77;152.55;;;5.30;99.90;;;;;;5163908;27;20225;-85
2021/12/02 09:51:36;;;;;;;207.73;193.07;;;5.30;99.90;;;;;;5146492;27;20185;-84
2021/12/02 09:54:15;;;;;;;145.88;133.60;;;5.30;99.90;;;;;;5163596;27;20165;-85
2021/12/02 09:56:44;;;;;;;160.90;147.55;;;5.30;99.90;;;;;;5164119;27;20245;-85
2021/12/02 09:59:13;;;;;;;114.15;102.97;;;5.40;99.90;;;;;;5147165;27;20592;-85
2021/12/02 10:01:46;;;;;;;92.85;75.05;;;5.50;99.90;;;;;;5164424;27;20180;-85
2021/12/02 10:04:13;;;;;;;86.05;58.50;;;5.50;99.90;;;;;;5169291;27;20145;-85
2021/12/02 10:06:41;;;;;;;106.55;92.95;;;5.50;99.90;;;;;;5147713;27;20195;-85
2021/12/02 10:11:58;;;;;;;86.88;59.17;;;5.30;99.90;;;;;;5165533;27;20226;-85
2021/12/02 10:14:39;;;;;;;95.63;71.65;;;5.30;99.90;;;;;;5164827;27;20149;-85
2021/12/02 10:17:15;;;;;;;91.88;74.15;;;5.20;99.90;;;;;;5145948;27;20168;-85
2021/12/02 10:23:12;;;;;;;88.47;65.63;;;5.10;99.90;;;;;;5164495;27;20240;-85
2021/12/02 10:25:39;;;;;;;89.97;61.63;;;5.10;99.90;;;;;;5164094;27;20181;-85
2021/12/02 10:28:10;;;;;;;109.95;98.03;;;5.20;99.90;;;;;;5165278;27;20162;-85
2021/12/02 10:30:41;;;;;;;84.22;51.08;;;5.20;99.90;;;;;;5145240;27;20181;-85
2021/12/02 10:33:07;;;;;;;89.43;64.97;;;5.20;99.90;;;;;;5164120;27;20142;-85
2021/12/02 10:35:40;;;;;;;96.20;79.10;;;5.20;99.90;;;;;;5164352;27;20200;-85
2021/12/02 10:38:06;;;;;;;104.88;91.22;;;5.20;99.90;;;;;;5146003;27;20407;-85
2021/12/02 10:40:36;;;;;;;88.77;63.23;;;5.20;99.90;;;;;;5163342;27;20181;-85
2021/12/02 10:43:08;;;;;;;86.85;60.53;;;5.40;99.90;;;;;;5164669;27;20463;-85
2021/12/02 10:45:34;;;;;;;93.45;81.68;;;5.40;99.90;;;;;;5163565;27;20180;-85
2021/12/02 10:48:00;;;;;;;94.10;76.80;;;5.50;99.90;;;;;;5164591;27;20172;-85
2021/12/02 10:50:26;;;;;;;150.33;136.80;;;5.40;99.90;;;;;;5164723;27;20505;-85
2021/12/02 10:52:53;;;;;;;93.68;79.13;;;5.50;99.90;;;;;;5164911;27;20446;-85
2021/12/02 10:55:22;;;;;;;82.65;46.35;;;5.60;99.90;;;;;;5164182;27;20168;-85
2021/12/02 10:57:54;;;;;;;79.63;32.25;;;5.60;99.90;;;;;;5145735;27;20161;-85
2021/12/02 11:00:28;;;;;;;72.72;16.95;;;5.60;99.90;;;;;;5164131;27;20189;-85
2021/12/02 11:02:57;;;;;;;73.72;18.45;;;5.70;99.90;;;;;;5163635;27;20161;-85
2021/12/02 11:05:29;;;;;;;75.47;14.45;;;5.70;99.90;;;;;;5163835;27;20214;-85
2021/12/02 11:08:07;;;;;;;72.07;14.20;;;5.70;99.90;;;;;;5145479;27;20164;-85
2021/12/02 11:10:48;;;;;;;73.20;15.30;;;5.70;99.90;;;;;;5163643;27;20234;-85
2021/12/02 11:13:22;;;;;;;72.32;15.68;;;5.60;99.90;;;;;;5163616;27;20157;-85
2021/12/02 11:15:48;;;;;;;74.35;16.30;;;5.60;99.90;;;;;;5163917;27;20146;-85
2021/12/02 11:18:16;;;;;;;72.50;17.20;;;5.60;99.90;;;;;;5144440;27;20161;-85
2021/12/02 11:20:48;;;;;;;71.25;15.55;;;5.70;99.90;;;;;;5145225;27;20245;-85
2021/12/02 11:23:31;;;;;;;72.85;18.10;;;5.70;99.90;;;;;;5163043;27;20668;-85
2021/12/02 11:26:15;;;;;;;71.07;12.63;;;5.80;99.90;;;;;;5145278;27;20512;-85
2021/12/02 11:28:47;;;;;;;83.45;30.00;;;5.90;99.90;;;;;;5163622;27;20153;-86
2021/12/02 11:31:20;;;;;;;74.10;22.35;;;5.80;99.90;;;;;;5162935;27;20202;-85
2021/12/02 11:33:48;;;;;;;71.25;13.90;;;5.60;99.90;;;;;;5162733;27;20156;-85
2021/12/02 11:36:19;;;;;;;70.78;13.70;;;5.50;99.90;;;;;;5144658;27;20167;-85
2021/12/02 11:38:46;;;;;;;70.97;15.02;;;5.50;99.90;;;;;;5162115;27;20154;-85
2021/12/02 11:41:14;;;;;;;71.53;15.23;;;5.60;99.90;;;;;;5162721;27;20165;-85
2021/12/02 11:43:40;;;;;;;70.93;12.85;;;5.70;99.90;;;;;;5144418;27;20165;-85
2021/12/02 11:46:11;;;;;;;72.18;13.50;;;5.70;99.90;;;;;;5162459;27;20157;-84
2021/12/02 11:48:41;;;;;;;70.20;12.55;;;5.70;99.90;;;;;;5164510;27;20157;-84
2021/12/02 11:51:15;;;;;;;79.53;14.02;;;5.70;99.90;;;;;;5162843;27;20204;-85
2021/12/02 11:53:41;;;;;;;73.15;16.83;;;5.60;99.90;;;;;;5145947;27;20157;-85
2021/12/02 11:56:18;;;;;;;73.72;17.05;;;5.60;99.90;;;;;;5163588;27;20154;-85
2021/12/02 11:58:47;;;;;;;77.20;18.45;;;5.50;99.90;;;;;;5163303;27;20141;-85
2021/12/02 12:01:22;;;;;;;72.38;14.88;;;5.60;99.90;;;;;;5161610;27;20212;-85
2021/12/02 12:03:51;;;;;;;73.10;14.73;;;5.50;99.90;;;;;;5163125;27;20145;-85
2021/12/02 12:06:41;;;;;;;70.85;13.45;;;5.60;99.90;;;;;;5159509;27;20196;-85
2021/12/02 12:09:18;;;;;;;74.20;18.63;;;5.50;99.90;;;;;;5145182;27;20188;-85
2021/12/02 12:11:58;;;;;;;74.07;13.38;;;5.60;99.90;;;;;;5162702;27;20177;-85
2021/12/02 12:14:50;;;;;;;70.18;11.55;;;5.60;99.90;;;;;;5144370;27;20165;-85
2021/12/02 12:17:17;;;;;;;75.68;24.98;;;5.60;99.90;;;;;;5144387;27;20186;-85
2021/12/02 12:19:47;;;;;;;72.82;17.83;;;5.70;99.90;;;;;;5162496;27;20193;-85
2021/12/02 12:22:33;;;;;;;73.07;15.35;;;5.70;99.90;;;;;;5144875;27;20687;-85
2021/12/02 12:25:13;;;;;;;77.80;23.02;;;5.70;99.90;;;;;;5162178;27;20152;-85
2021/12/02 12:27:58;;;;;;;75.55;19.58;;;5.80;99.90;;;;;;5162444;27;20149;-85
2021/12/02 12:30:25;;;;;;;73.00;14.25;;;5.90;99.90;;;;;;5166137;27;20233;-85
2021/12/02 12:36:13;;;;;;;69.45;8.85;;;5.80;99.90;;;;;;5165801;27;20217;-85
2021/12/02 12:38:50;;;;;;;70.72;8.35;;;5.80;99.90;;;;;;5147075;27;20173;-85
2021/12/02 12:41:19;;;;;;;70.13;9.48;;;5.60;99.90;;;;;;5147702;27;20156;-85
2021/12/02 12:43:49;;;;;;;71.57;7.97;;;5.70;99.90;;;;;;5166211;27;20161;-85
2021/12/02 12:46:20;;;;;;;77.32;26.73;;;5.60;99.90;;;;;;5148055;27;20161;-85
2021/12/02 12:48:46;;;;;;;73.55;18.85;;;5.60;99.90;;;;;;5148163;27;20173;-85
2021/12/02 12:51:25;;;;;;;68.70;8.13;;;5.60;99.90;;;;;;5148069;27;20246;-85
2021/12/02 12:53:58;;;;;;;72.10;9.15;;;5.60;99.90;;;;;;5148901;27;20160;-85